METAR Data
IDs: Format: Raw Decoded Include TAF

Data at: 0306 UTC 15 Aug 2020

METAR for:KHSE (Hatteras/Mitchell Fl, NC, US)
Text:KHSE 150251Z AUTO 23005KT 7SM -RA FEW012 SCT026 BKN046 26/23 A2994 RMK AO2 TSE15B29E44 SLP138 P0007 60116 T02560233 52002
Temperature: 25.6°C ( 78°F)
Dewpoint: 23.3°C ( 74°F) [RH = 87%]
Pressure (altimeter):29.94 inches Hg (1014.0 mb) [Sea level pressure: 1013.8 mb]
Winds:from the SW (230 degrees) at 6 MPH (5 knots; 2.6 m/s)
Visibility: 7 sm ( 11 km)
Ceiling:4600 feet AGL
Clouds: few clouds at 1200 feet AGL, scattered clouds at 2600 feet AGL, broken clouds at 4600 feet AGL
Weather:-RA (light rain)
QC Flag:automated observation with no human augmentation
Text:KHSE 150235Z AUTO 23007KT 3SM TSRA BR SCT020 BKN040 OVC090 26/24 A2994 RMK AO2 TSE15B29 P0006 T02610239
Temperature: 26.1°C ( 79°F)
Dewpoint: 23.9°C ( 75°F) [RH = 88%]
Pressure (altimeter):29.94 inches Hg (1014.0 mb)
Winds:from the SW (230 degrees) at 8 MPH (7 knots; 3.6 m/s)
Visibility: 3 sm ( 5 km)
Ceiling:4000 feet AGL
Clouds: scattered clouds at 2000 feet AGL, broken clouds at 4000 feet AGL, overcast cloud deck at 9000 feet AGL
Weather:TSRA BR (rain associated with thunderstorm(s), mist)
QC Flag:automated observation with no human augmentation
Text:KHSE 150221Z AUTO VRB05KT 5SM VCTS -RA FEW010 SCT040 BKN075 26/23 A2993 RMK AO2 LTG DSNT NE TSE15 P0005 T02610233
Temperature: 26.1°C ( 79°F)
Dewpoint: 23.3°C ( 74°F) [RH = 85%]
Pressure (altimeter):29.93 inches Hg (1013.6 mb)
Winds:variable direction winds at 6 MPH (5 knots; 2.6 m/s)
Visibility: 5 sm ( 8 km)
Ceiling:7500 feet AGL
Clouds: few clouds at 1000 feet AGL, scattered clouds at 4000 feet AGL, broken clouds at 7500 feet AGL
Weather:VCTS -RA (thunderstorm in vicinity, light rain)
QC Flag:automated observation with no human augmentation
Text:KHSE 150201Z AUTO 00000KT 4SM -TSRA BR SCT025 BKN037 OVC110 25/23 A2993 RMK AO2 LTG DSNT E AND W P0004 T02500233
Temperature: 25.0°C ( 77°F)
Dewpoint: 23.3°C ( 74°F) [RH = 90%]
Pressure (altimeter):29.93 inches Hg (1013.6 mb)
Winds:calm
Visibility: 4 sm ( 6 km)
Ceiling:3700 feet AGL
Clouds: scattered clouds at 2500 feet AGL, broken clouds at 3700 feet AGL, overcast cloud deck at 11000 feet AGL
Weather:-TSRA BR (light rain associated with thunderstorm(s), mist)
QC Flag:automated observation with no human augmentation
Text:KHSE 150156Z AUTO 00000KT 2SM +TSRA BR BKN025 BKN037 OVC047 25/23 A2993 RMK AO2 LTG DSNT E AND W P0003 T02500233
Temperature: 25.0°C ( 77°F)
Dewpoint: 23.3°C ( 74°F) [RH = 90%]
Pressure (altimeter):29.93 inches Hg (1013.6 mb)
Winds:calm
Visibility: 2.00 sm ( 3.22 km)
Ceiling:2500 feet AGL
Clouds: broken clouds at 2500 feet AGL, broken clouds at 3700 feet AGL, overcast cloud deck at 4700 feet AGL
Weather:+TSRA BR (heavy rain associated with thunderstorm(s), mist)
QC Flag:automated observation with no human augmentation
Text:KHSE 150151Z AUTO 00000KT 1 1/4SM +TSRA BR FEW012 BKN025 OVC047 25/23 A2994 RMK AO2 LTG DSNT E AND W RAB09 TSB05E27B43 SLP136 P0109 T02500233
Temperature: 25.0°C ( 77°F)
Dewpoint: 23.3°C ( 74°F) [RH = 90%]
Pressure (altimeter):29.94 inches Hg (1014.0 mb) [Sea level pressure: 1013.6 mb]
Winds:calm
Visibility: 1.25 sm ( 2.01 km)
Ceiling:2500 feet AGL
Clouds: few clouds at 1200 feet AGL, broken clouds at 2500 feet AGL, overcast cloud deck at 4700 feet AGL
Weather:+TSRA BR (heavy rain associated with thunderstorm(s), mist)
QC Flag:automated observation with no human augmentation
Text:KHSE 150149Z AUTO 00000KT 3/4SM +TSRA BR FEW012 OVC025 25/23 A2994 RMK AO2 LTG DSNT E AND W RAB09 TSB05E27B43 P0108
Temperature: 25.0°C ( 77°F)
Dewpoint: 23.0°C ( 73°F) [RH = 89%]
Pressure (altimeter):29.94 inches Hg (1014.0 mb)
Winds:calm
Visibility: 0.75 sm ( 1.21 km)
Ceiling:2500 feet AGL
Clouds: few clouds at 1200 feet AGL, overcast cloud deck at 2500 feet AGL
Weather:+TSRA BR (heavy rain associated with thunderstorm(s), mist)
QC Flag:automated observation with no human augmentation
Text:KHSE 150127Z AUTO 28006KT 3/4SM VCTS +RA BKN012 OVC021 27/24 A2993 RMK AO2 RAB09 TSB05E27 P0007 T02720244
Temperature: 27.2°C ( 81°F)
Dewpoint: 24.4°C ( 76°F) [RH = 85%]
Pressure (altimeter):29.93 inches Hg (1013.6 mb)
Winds:from the W (280 degrees) at 7 MPH (6 knots; 3.1 m/s)
Visibility: 0.75 sm ( 1.21 km)
Ceiling:1200 feet AGL
Clouds: broken clouds at 1200 feet AGL, overcast cloud deck at 2100 feet AGL
Weather:VCTS +RA (thunderstorm in vicinity, heavy rain)
QC Flag:automated observation with no human augmentation
Text:KHSE 150125Z AUTO 26005KT 1 1/2SM +TSRA SCT012 OVC021 27/24 A2993 RMK AO2 RAB09 TSB05 P0003 T02720244
Temperature: 27.2°C ( 81°F)
Dewpoint: 24.4°C ( 76°F) [RH = 85%]
Pressure (altimeter):29.93 inches Hg (1013.6 mb)
Winds:from the W (260 degrees) at 6 MPH (5 knots; 2.6 m/s)
Visibility: 1.50 sm ( 2.41 km)
Ceiling:2100 feet AGL
Clouds: scattered clouds at 1200 feet AGL, overcast cloud deck at 2100 feet AGL
Weather:+TSRA (heavy rain associated with thunderstorm(s))
QC Flag:automated observation with no human augmentation
Text:KHSE 150107Z AUTO 00000KT 9SM TS BKN021 BKN033 BKN041 28/24 A2992 RMK AO2 TSB05 T02780244
Temperature: 27.8°C ( 82°F)
Dewpoint: 24.4°C ( 76°F) [RH = 82%]
Pressure (altimeter):29.92 inches Hg (1013.3 mb)
Winds:calm
Visibility: 9 sm ( 14 km)
Ceiling:2100 feet AGL
Clouds: broken clouds at 2100 feet AGL, broken clouds at 3300 feet AGL, broken clouds at 4100 feet AGL
Weather:TS (thunderstorm)
QC Flag:automated observation with no human augmentation
Text:KHSE 150051Z AUTO 23005KT 9SM FEW040 SCT060 SCT110 28/24 A2991 RMK AO2 SLP128 T02780244
Temperature: 27.8°C ( 82°F)
Dewpoint: 24.4°C ( 76°F) [RH = 82%]
Pressure (altimeter):29.91 inches Hg (1013.0 mb) [Sea level pressure: 1012.8 mb]
Winds:from the SW (230 degrees) at 6 MPH (5 knots; 2.6 m/s)
Visibility: 9 sm ( 14 km)
Ceiling:at least 12,000 feet AGL
Clouds: few clouds at 4000 feet AGL, scattered clouds at 6000 feet AGL, scattered clouds at 11000 feet AGL
QC Flag:automated observation with no human augmentation
Text:KHSE 142351Z AUTO 24006KT 9SM SCT032 28/24 A2990 RMK AO2 SLP123 60000 T02780244 10294 20278 51004
Temperature: 27.8°C ( 82°F)
Dewpoint: 24.4°C ( 76°F) [RH = 82%]
Pressure (altimeter):29.90 inches Hg (1012.6 mb) [Sea level pressure: 1012.3 mb]
Winds:from the WSW (240 degrees) at 7 MPH (6 knots; 3.1 m/s)
Visibility: 9 sm ( 14 km)
Ceiling:at least 12,000 feet AGL
Clouds: scattered clouds at 3200 feet AGL
QC Flag:automated observation with no human augmentation
Text:KHSE 142251Z AUTO 23008KT 10SM CLR 28/24 A2989 RMK AO2 SLP122 T02830244
Temperature: 28.3°C ( 83°F)
Dewpoint: 24.4°C ( 76°F) [RH = 79%]
Pressure (altimeter):29.89 inches Hg (1012.3 mb) [Sea level pressure: 1012.2 mb]
Winds:from the SW (230 degrees) at 9 MPH (8 knots; 4.1 m/s)
Visibility:10 or more sm (16+ km)
Ceiling:at least 12,000 feet AGL
Clouds:sky clear below 12,000 feet AGL
QC Flag:automated observation with no human augmentation
Text:KHSE 142151Z AUTO 22007KT 10SM CLR 29/24 A2989 RMK AO2 LTG DSNT NE SLP121 T02890244
Temperature: 28.9°C ( 84°F)
Dewpoint: 24.4°C ( 76°F) [RH = 77%]
Pressure (altimeter):29.89 inches Hg (1012.3 mb) [Sea level pressure: 1012.1 mb]
Winds:from the SW (220 degrees) at 8 MPH (7 knots; 3.6 m/s)
Visibility:10 or more sm (16+ km)
Ceiling:at least 12,000 feet AGL
Clouds:sky clear below 12,000 feet AGL
QC Flag:automated observation with no human augmentation
Text:KHSE 142051Z AUTO 25010KT 10SM CLR 29/24 A2989 RMK AO2 RAB09E21 SLP120 P0000 60000 T02890244 58018
Temperature: 28.9°C ( 84°F)
Dewpoint: 24.4°C ( 76°F) [RH = 77%]
Pressure (altimeter):29.89 inches Hg (1012.3 mb) [Sea level pressure: 1012.0 mb]
Winds:from the WSW (250 degrees) at 12 MPH (10 knots; 5.1 m/s)
Visibility:10 or more sm (16+ km)
Ceiling:at least 12,000 feet AGL
Clouds:sky clear below 12,000 feet AGL
QC Flag:automated observation with no human augmentation
Text:KHSE 141951Z AUTO 25008G16KT 10SM FEW023 BKN033 BKN044 28/24 A2991 RMK AO2 RAB35E46 SLP128 P0000 T02830239
Temperature: 28.3°C ( 83°F)
Dewpoint: 23.9°C ( 75°F) [RH = 77%]
Pressure (altimeter):29.91 inches Hg (1013.0 mb) [Sea level pressure: 1012.8 mb]
Winds:from the WSW (250 degrees) at 9 MPH (8 knots; 4.1 m/s) gusting to 18 MPH (16 knots; 8.2 m/s)
Visibility:10 or more sm (16+ km)
Ceiling:3300 feet AGL
Clouds: few clouds at 2300 feet AGL, broken clouds at 3300 feet AGL, broken clouds at 4400 feet AGL
QC Flag:automated observation with no human augmentation
Text:KHSE 141911Z AUTO 23011KT 10SM SCT024 BKN032 29/25 A2992 RMK AO2 T02890250
Temperature: 28.9°C ( 84°F)
Dewpoint: 25.0°C ( 77°F) [RH = 80%]
Pressure (altimeter):29.92 inches Hg (1013.3 mb)
Winds:from the SW (230 degrees) at 13 MPH (11 knots; 5.7 m/s)
Visibility:10 or more sm (16+ km)
Ceiling:3200 feet AGL
Clouds: scattered clouds at 2400 feet AGL, broken clouds at 3200 feet AGL
QC Flag:automated observation with no human augmentation
Text:KHSE 141851Z AUTO 24009KT 190V250 10SM SCT021 BKN026 29/24 A2993 RMK AO2 SLP136 T02890244
Temperature: 28.9°C ( 84°F)
Dewpoint: 24.4°C ( 76°F) [RH = 77%]
Pressure (altimeter):29.93 inches Hg (1013.6 mb) [Sea level pressure: 1013.6 mb]
Winds:from the WSW (240 degrees) at 10 MPH (9 knots; 4.6 m/s)
Visibility:10 or more sm (16+ km)
Ceiling:2600 feet AGL
Clouds: scattered clouds at 2100 feet AGL, broken clouds at 2600 feet AGL
QC Flag:automated observation with no human augmentation
Text:KHSE 141840Z AUTO 24011KT 10SM BKN024 29/24 A2994 RMK AO2 T02890244
Temperature: 28.9°C ( 84°F)
Dewpoint: 24.4°C ( 76°F) [RH = 77%]
Pressure (altimeter):29.94 inches Hg (1014.0 mb)
Winds:from the WSW (240 degrees) at 13 MPH (11 knots; 5.7 m/s)
Visibility:10 or more sm (16+ km)
Ceiling:2400 feet AGL
Clouds: broken clouds at 2400 feet AGL
QC Flag:automated observation with no human augmentation
Text:KHSE 141751Z AUTO 23011KT 10SM FEW030 29/25 A2994 RMK AO2 SLP137 T02890250 10294 20267 58006
Temperature: 28.9°C ( 84°F)
Dewpoint: 25.0°C ( 77°F) [RH = 80%]
Pressure (altimeter):29.94 inches Hg (1014.0 mb) [Sea level pressure: 1013.7 mb]
Winds:from the SW (230 degrees) at 13 MPH (11 knots; 5.7 m/s)
Visibility:10 or more sm (16+ km)
Ceiling:at least 12,000 feet AGL
Clouds: few clouds at 3000 feet AGL
QC Flag:automated observation with no human augmentation
Text:KHSE 141651Z AUTO 26008KT 10SM BKN020 OVC026 28/24 A2995 RMK AO2 SLP141 T02780239
Temperature: 27.8°C ( 82°F)
Dewpoint: 23.9°C ( 75°F) [RH = 79%]
Pressure (altimeter):29.95 inches Hg (1014.3 mb) [Sea level pressure: 1014.1 mb]
Winds:from the W (260 degrees) at 9 MPH (8 knots; 4.1 m/s)
Visibility:10 or more sm (16+ km)
Ceiling:2000 feet AGL
Clouds: broken clouds at 2000 feet AGL, overcast cloud deck at 2600 feet AGL
QC Flag:automated observation with no human augmentation
Text:KHSE 141551Z AUTO 28006KT 10SM BKN017 28/24 A2996 RMK AO2 SLP143 T02780239
Temperature: 27.8°C ( 82°F)
Dewpoint: 23.9°C ( 75°F) [RH = 79%]
Pressure (altimeter):29.96 inches Hg (1014.6 mb) [Sea level pressure: 1014.3 mb]
Winds:from the W (280 degrees) at 7 MPH (6 knots; 3.1 m/s)
Visibility:10 or more sm (16+ km)
Ceiling:1700 feet AGL
Clouds: broken clouds at 1700 feet AGL
QC Flag:automated observation with no human augmentation
Text:KHSE 141533Z AUTO 28006KT 10SM BKN016 28/24 A2995 RMK AO2 T02780244
Temperature: 27.8°C ( 82°F)
Dewpoint: 24.4°C ( 76°F) [RH = 82%]
Pressure (altimeter):29.95 inches Hg (1014.3 mb)
Winds:from the W (280 degrees) at 7 MPH (6 knots; 3.1 m/s)
Visibility:10 or more sm (16+ km)
Ceiling:1600 feet AGL
Clouds: broken clouds at 1600 feet AGL
QC Flag:automated observation with no human augmentation
Text:KHSE 141510Z AUTO 29007KT 10SM SCT014 28/24 A2996 RMK AO2 T02780239
Temperature: 27.8°C ( 82°F)
Dewpoint: 23.9°C ( 75°F) [RH = 79%]
Pressure (altimeter):29.96 inches Hg (1014.6 mb)
Winds:from the WNW (290 degrees) at 8 MPH (7 knots; 3.6 m/s)
Visibility:10 or more sm (16+ km)
Ceiling:at least 12,000 feet AGL
Clouds: scattered clouds at 1400 feet AGL
QC Flag:automated observation with no human augmentation
Text:KHSE 141451Z AUTO 29009KT 10SM BKN014 27/24 A2996 RMK AO2 SLP143 T02720239 53005
Temperature: 27.2°C ( 81°F)
Dewpoint: 23.9°C ( 75°F) [RH = 82%]
Pressure (altimeter):29.96 inches Hg (1014.6 mb) [Sea level pressure: 1014.3 mb]
Winds:from the WNW (290 degrees) at 10 MPH (9 knots; 4.6 m/s)
Visibility:10 or more sm (16+ km)
Ceiling:1400 feet AGL
Clouds: broken clouds at 1400 feet AGL
QC Flag:automated observation with no human augmentation
Text:KHSE 141351Z AUTO 28007KT 250V310 10SM BKN012 28/24 A2995 RMK AO2 SLP140 T02830239
Temperature: 28.3°C ( 83°F)
Dewpoint: 23.9°C ( 75°F) [RH = 77%]
Pressure (altimeter):29.95 inches Hg (1014.3 mb) [Sea level pressure: 1014.0 mb]
Winds:from the W (280 degrees) at 8 MPH (7 knots; 3.6 m/s)
Visibility:10 or more sm (16+ km)
Ceiling:1200 feet AGL
Clouds: broken clouds at 1200 feet AGL
QC Flag:automated observation with no human augmentation
Text:KHSE 141346Z AUTO 29006KT 10SM BKN012 28/24 A2995 RMK AO2
Temperature: 28.0°C ( 82°F)
Dewpoint: 24.0°C ( 75°F) [RH = 79%]
Pressure (altimeter):29.95 inches Hg (1014.3 mb)
Winds:from the WNW (290 degrees) at 7 MPH (6 knots; 3.1 m/s)
Visibility:10 or more sm (16+ km)
Ceiling:1200 feet AGL
Clouds: broken clouds at 1200 feet AGL
QC Flag:automated observation with no human augmentation
Text:KHSE 141258Z AUTO 30005KT 10SM SCT012 29/25 A2994 RMK AO2 T02940250
Temperature: 29.4°C ( 85°F)
Dewpoint: 25.0°C ( 77°F) [RH = 77%]
Pressure (altimeter):29.94 inches Hg (1014.0 mb)
Winds:from the WNW (300 degrees) at 6 MPH (5 knots; 2.6 m/s)
Visibility:10 or more sm (16+ km)
Ceiling:at least 12,000 feet AGL
Clouds: scattered clouds at 1200 feet AGL
QC Flag:automated observation with no human augmentation
Text:KHSE 141251Z AUTO 30007KT 10SM SCT012 BKN016 29/24 A2994 RMK AO2 SLP138 T02940244
Temperature: 29.4°C ( 85°F)
Dewpoint: 24.4°C ( 76°F) [RH = 75%]
Pressure (altimeter):29.94 inches Hg (1014.0 mb) [Sea level pressure: 1013.8 mb]
Winds:from the WNW (300 degrees) at 8 MPH (7 knots; 3.6 m/s)
Visibility:10 or more sm (16+ km)
Ceiling:1600 feet AGL
Clouds: scattered clouds at 1200 feet AGL, broken clouds at 1600 feet AGL
QC Flag:automated observation with no human augmentation
Text:KHSE 141240Z AUTO 30007KT 10SM BKN012 29/24 A2994 RMK AO2 T02940244
Temperature: 29.4°C ( 85°F)
Dewpoint: 24.4°C ( 76°F) [RH = 75%]
Pressure (altimeter):29.94 inches Hg (1014.0 mb)
Winds:from the WNW (300 degrees) at 8 MPH (7 knots; 3.6 m/s)
Visibility:10 or more sm (16+ km)
Ceiling:1200 feet AGL
Clouds: broken clouds at 1200 feet AGL
QC Flag:automated observation with no human augmentation
Text:KHSE 141155Z AUTO 28005KT 10SM SCT012 BKN034 29/24 A2993 RMK AO2 T02940244
Temperature: 29.4°C ( 85°F)
Dewpoint: 24.4°C ( 76°F) [RH = 75%]
Pressure (altimeter):29.93 inches Hg (1013.6 mb)
Winds:from the W (280 degrees) at 6 MPH (5 knots; 2.6 m/s)
Visibility:10 or more sm (16+ km)
Ceiling:3400 feet AGL
Clouds: scattered clouds at 1200 feet AGL, broken clouds at 3400 feet AGL
QC Flag:automated observation with no human augmentation
Text:KHSE 141151Z AUTO 28005KT 10SM BKN012 BKN032 29/24 A2993 RMK AO2 RAB1058E34 SLP135 P0009 60065 70233 T02940244 10300 20289 51014
Temperature: 29.4°C ( 85°F)
Dewpoint: 24.4°C ( 76°F) [RH = 75%]
Pressure (altimeter):29.93 inches Hg (1013.6 mb) [Sea level pressure: 1013.5 mb]
Winds:from the W (280 degrees) at 6 MPH (5 knots; 2.6 m/s)
Visibility:10 or more sm (16+ km)
Ceiling:1200 feet AGL
Clouds: broken clouds at 1200 feet AGL, broken clouds at 3200 feet AGL
QC Flag:automated observation with no human augmentation
Text:KHSE 141124Z AUTO 29006KT 3SM -RA BKN010 BKN014 OVC045 29/24 A2992 RMK AO2 RAB1058 P0008 T02890244
Temperature: 28.9°C ( 84°F)
Dewpoint: 24.4°C ( 76°F) [RH = 77%]
Pressure (altimeter):29.92 inches Hg (1013.3 mb)
Winds:from the WNW (290 degrees) at 7 MPH (6 knots; 3.1 m/s)
Visibility: 3 sm ( 5 km)
Ceiling:1000 feet AGL
Clouds: broken clouds at 1000 feet AGL, broken clouds at 1400 feet AGL, overcast cloud deck at 4500 feet AGL
Weather:-RA (light rain)
QC Flag:automated observation with no human augmentation
Text:KHSE 141117Z AUTO 27007KT 2SM RA BKN008 BKN014 OVC043 29/24 A2993 RMK AO2 VIS 1V4 RAB1058 P0007 T02890244
Temperature: 28.9°C ( 84°F)
Dewpoint: 24.4°C ( 76°F) [RH = 77%]
Pressure (altimeter):29.93 inches Hg (1013.6 mb)
Winds:from the W (270 degrees) at 8 MPH (7 knots; 3.6 m/s)
Visibility: 2.00 sm ( 3.22 km)
Ceiling:800 feet AGL
Clouds: broken clouds at 800 feet AGL, broken clouds at 1400 feet AGL, overcast cloud deck at 4300 feet AGL
Weather:RA (moderate rain)
QC Flag:automated observation with no human augmentation
Text:KHSE 141111Z AUTO VRB06KT 1 1/2SM RA FEW008 BKN013 OVC070 29/24 A2992 RMK AO2 VIS 1/2V2 1/2 RAB1058 P0005 T02890244
Temperature: 28.9°C ( 84°F)
Dewpoint: 24.4°C ( 76°F) [RH = 77%]
Pressure (altimeter):29.92 inches Hg (1013.3 mb)
Winds:variable direction winds at 7 MPH (6 knots; 3.1 m/s)
Visibility: 1.50 sm ( 2.41 km)
Ceiling:1300 feet AGL
Clouds: few clouds at 800 feet AGL, broken clouds at 1300 feet AGL, overcast cloud deck at 7000 feet AGL
Weather:RA (moderate rain)
QC Flag:automated observation with no human augmentation
Text:KHSE 141104Z AUTO 25009KT 2SM RA FEW008 BKN012 OVC070 29/24 A2992 RMK AO2 VIS 1/2V5 RAB1058 P0001 T02890244
Temperature: 28.9°C ( 84°F)
Dewpoint: 24.4°C ( 76°F) [RH = 77%]
Pressure (altimeter):29.92 inches Hg (1013.3 mb)
Winds:from the WSW (250 degrees) at 10 MPH (9 knots; 4.6 m/s)
Visibility: 2.00 sm ( 3.22 km)
Ceiling:1200 feet AGL
Clouds: few clouds at 800 feet AGL, broken clouds at 1200 feet AGL, overcast cloud deck at 7000 feet AGL
Weather:RA (moderate rain)
QC Flag:automated observation with no human augmentation
Text:KHSE 141051Z AUTO 24011KT 7SM BKN014 OVC021 29/24 A2992 RMK AO2 SLP132 T02890244
Temperature: 28.9°C ( 84°F)
Dewpoint: 24.4°C ( 76°F) [RH = 77%]
Pressure (altimeter):29.92 inches Hg (1013.3 mb) [Sea level pressure: 1013.2 mb]
Winds:from the WSW (240 degrees) at 13 MPH (11 knots; 5.7 m/s)
Visibility: 7 sm ( 11 km)
Ceiling:1400 feet AGL
Clouds: broken clouds at 1400 feet AGL, overcast cloud deck at 2100 feet AGL
QC Flag:automated observation with no human augmentation
Text:KHSE 141037Z AUTO 24009KT 5SM HZ BKN014 BKN019 BKN024 29/24 A2992 RMK AO2 T02940244
Temperature: 29.4°C ( 85°F)
Dewpoint: 24.4°C ( 76°F) [RH = 75%]
Pressure (altimeter):29.92 inches Hg (1013.3 mb)
Winds:from the WSW (240 degrees) at 10 MPH (9 knots; 4.6 m/s)
Visibility: 5 sm ( 8 km)
Ceiling:1400 feet AGL
Clouds: broken clouds at 1400 feet AGL, broken clouds at 1900 feet AGL, broken clouds at 2400 feet AGL
Weather:HZ (haze)
QC Flag:automated observation with no human augmentation
Text:KHSE 141027Z AUTO 24007KT 9SM BKN017 29/24 A2992 RMK AO2 T02890239
Temperature: 28.9°C ( 84°F)
Dewpoint: 23.9°C ( 75°F) [RH = 74%]
Pressure (altimeter):29.92 inches Hg (1013.3 mb)
Winds:from the WSW (240 degrees) at 8 MPH (7 knots; 3.6 m/s)
Visibility: 9 sm ( 14 km)
Ceiling:1700 feet AGL
Clouds: broken clouds at 1700 feet AGL
QC Flag:automated observation with no human augmentation
Text:KHSE 140951Z AUTO 26005KT 10SM SCT019 SCT024 29/24 A2991 RMK AO2 SLP126 T02890239
Temperature: 28.9°C ( 84°F)
Dewpoint: 23.9°C ( 75°F) [RH = 74%]
Pressure (altimeter):29.91 inches Hg (1013.0 mb) [Sea level pressure: 1012.6 mb]
Winds:from the W (260 degrees) at 6 MPH (5 knots; 2.6 m/s)
Visibility:10 or more sm (16+ km)
Ceiling:at least 12,000 feet AGL
Clouds: scattered clouds at 1900 feet AGL, scattered clouds at 2400 feet AGL
QC Flag:automated observation with no human augmentation
Text:KHSE 140916Z AUTO 25005KT 10SM BKN016 BKN021 29/24 A2990 RMK AO2 LTG DSNT SE T02940244
Temperature: 29.4°C ( 85°F)
Dewpoint: 24.4°C ( 76°F) [RH = 75%]
Pressure (altimeter):29.90 inches Hg (1012.6 mb)
Winds:from the WSW (250 degrees) at 6 MPH (5 knots; 2.6 m/s)
Visibility:10 or more sm (16+ km)
Ceiling:1600 feet AGL
Clouds: broken clouds at 1600 feet AGL, broken clouds at 2100 feet AGL
QC Flag:automated observation with no human augmentation
Text:KHSE 140851Z AUTO 28007KT 240V300 10SM FEW014 SCT019 BKN100 29/24 A2989 RMK AO2 LTG DSNT S SLP121 60056 T02940244 55006
Temperature: 29.4°C ( 85°F)
Dewpoint: 24.4°C ( 76°F) [RH = 75%]
Pressure (altimeter):29.89 inches Hg (1012.3 mb) [Sea level pressure: 1012.1 mb]
Winds:from the W (280 degrees) at 8 MPH (7 knots; 3.6 m/s)
Visibility:10 or more sm (16+ km)
Ceiling:10000 feet AGL
Clouds: few clouds at 1400 feet AGL, scattered clouds at 1900 feet AGL, broken clouds at 10000 feet AGL
QC Flag:automated observation with no human augmentation
Text:KHSE 140833Z AUTO 27006KT 10SM SCT014 BKN019 OVC100 29/25 A2989 RMK AO2 LTG DSNT S T02940250
Temperature: 29.4°C ( 85°F)
Dewpoint: 25.0°C ( 77°F) [RH = 77%]
Pressure (altimeter):29.89 inches Hg (1012.3 mb)
Winds:from the W (270 degrees) at 7 MPH (6 knots; 3.1 m/s)
Visibility:10 or more sm (16+ km)
Ceiling:1900 feet AGL
Clouds: scattered clouds at 1400 feet AGL, broken clouds at 1900 feet AGL, overcast cloud deck at 10000 feet AGL
QC Flag:automated observation with no human augmentation
Text:KHSE 140803Z AUTO 28006KT 10SM FEW013 30/24 A2989 RMK AO2 LTG DSNT S T03000244
Temperature: 30.0°C ( 86°F)
Dewpoint: 24.4°C ( 76°F) [RH = 72%]
Pressure (altimeter):29.89 inches Hg (1012.3 mb)
Winds:from the W (280 degrees) at 7 MPH (6 knots; 3.1 m/s)
Visibility:10 or more sm (16+ km)
Ceiling:at least 12,000 feet AGL
Clouds: few clouds at 1300 feet AGL
QC Flag:automated observation with no human augmentation
Text:KHSE 140751Z AUTO 29008KT 10SM BKN013 30/24 A2989 RMK AO2 LTG DSNT S RAB14E38 SLP120 P0027 T03000244
Temperature: 30.0°C ( 86°F)
Dewpoint: 24.4°C ( 76°F) [RH = 72%]
Pressure (altimeter):29.89 inches Hg (1012.3 mb) [Sea level pressure: 1012.0 mb]
Winds:from the WNW (290 degrees) at 9 MPH (8 knots; 4.1 m/s)
Visibility:10 or more sm (16+ km)
Ceiling:1300 feet AGL
Clouds: broken clouds at 1300 feet AGL
QC Flag:automated observation with no human augmentation
Text:KHSE 140731Z AUTO 28007G14KT 3SM -RA BKN011 BKN020 OVC027 30/24 A2989 RMK AO2 RAB14 P0027 T03000244
Temperature: 30.0°C ( 86°F)
Dewpoint: 24.4°C ( 76°F) [RH = 72%]
Pressure (altimeter):29.89 inches Hg (1012.3 mb)
Winds:from the W (280 degrees) at 8 MPH (7 knots; 3.6 m/s) gusting to 16 MPH (14 knots; 7.2 m/s)
Visibility: 3 sm ( 5 km)
Ceiling:1100 feet AGL
Clouds: broken clouds at 1100 feet AGL, broken clouds at 2000 feet AGL, overcast cloud deck at 2700 feet AGL
Weather:-RA (light rain)
QC Flag:automated observation with no human augmentation
Text:KHSE 140729Z AUTO 28009G14KT 1 3/4SM -RA BKN011 BKN020 OVC027 30/25 A2988 RMK AO2 RAB14 P0027 T03000250
Temperature: 30.0°C ( 86°F)
Dewpoint: 25.0°C ( 77°F) [RH = 75%]
Pressure (altimeter):29.88 inches Hg (1011.9 mb)
Winds:from the W (280 degrees) at 10 MPH (9 knots; 4.6 m/s) gusting to 16 MPH (14 knots; 7.2 m/s)
Visibility: 1.75 sm ( 2.82 km)
Ceiling:1100 feet AGL
Clouds: broken clouds at 1100 feet AGL, broken clouds at 2000 feet AGL, overcast cloud deck at 2700 feet AGL
Weather:-RA (light rain)
QC Flag:automated observation with no human augmentation
Text:KHSE 140719Z AUTO 29008KT 1 1/4SM +RA SCT013 BKN022 OVC029 30/24 A2989 RMK AO2 RAB14 P0002 T03000244
Temperature: 30.0°C ( 86°F)
Dewpoint: 24.4°C ( 76°F) [RH = 72%]
Pressure (altimeter):29.89 inches Hg (1012.3 mb)
Winds:from the WNW (290 degrees) at 9 MPH (8 knots; 4.1 m/s)
Visibility: 1.25 sm ( 2.01 km)
Ceiling:2200 feet AGL
Clouds: scattered clouds at 1300 feet AGL, broken clouds at 2200 feet AGL, overcast cloud deck at 2900 feet AGL
Weather:+RA (heavy rain)
QC Flag:automated observation with no human augmentation
Text:KHSE 140651Z AUTO 25010KT 8SM SCT015 BKN019 BKN025 29/24 A2990 RMK AO2 RAE26 SLP125 P0029 T02940244
Temperature: 29.4°C ( 85°F)
Dewpoint: 24.4°C ( 76°F) [RH = 75%]
Pressure (altimeter):29.90 inches Hg (1012.6 mb) [Sea level pressure: 1012.5 mb]
Winds:from the WSW (250 degrees) at 12 MPH (10 knots; 5.1 m/s)
Visibility: 8 sm ( 13 km)
Ceiling:1900 feet AGL
Clouds: scattered clouds at 1500 feet AGL, broken clouds at 1900 feet AGL, broken clouds at 2500 feet AGL
QC Flag:automated observation with no human augmentation
Text:KHSE 140628Z AUTO 25011G20KT 7SM SCT014 BKN019 OVC024 29/24 A2990 RMK AO2 RAE26 P0029 T02890244
Temperature: 28.9°C ( 84°F)
Dewpoint: 24.4°C ( 76°F) [RH = 77%]
Pressure (altimeter):29.90 inches Hg (1012.6 mb)
Winds:from the WSW (250 degrees) at 13 MPH (11 knots; 5.7 m/s) gusting to 23 MPH (20 knots; 10.3 m/s)
Visibility: 7 sm ( 11 km)
Ceiling:1900 feet AGL
Clouds: scattered clouds at 1400 feet AGL, broken clouds at 1900 feet AGL, overcast cloud deck at 2400 feet AGL
QC Flag:automated observation with no human augmentation
Text:KHSE 140621Z AUTO 24011G19KT 2 1/2SM -RA BKN018 BKN022 OVC030 28/24 A2990 RMK AO2 P0029 T02830244
Temperature: 28.3°C ( 83°F)
Dewpoint: 24.4°C ( 76°F) [RH = 79%]
Pressure (altimeter):29.90 inches Hg (1012.6 mb)
Winds:from the WSW (240 degrees) at 13 MPH (11 knots; 5.7 m/s) gusting to 22 MPH (19 knots; 9.8 m/s)
Visibility: 2.50 sm ( 4.02 km)
Ceiling:1800 feet AGL
Clouds: broken clouds at 1800 feet AGL, broken clouds at 2200 feet AGL, overcast cloud deck at 3000 feet AGL
Weather:-RA (light rain)
QC Flag:automated observation with no human augmentation
Text:KHSE 140618Z AUTO 23013G21KT 1 1/4SM -RA FEW007 BKN022 OVC030 28/24 A2990 RMK AO2 P0029 T02830244
Temperature: 28.3°C ( 83°F)
Dewpoint: 24.4°C ( 76°F) [RH = 79%]
Pressure (altimeter):29.90 inches Hg (1012.6 mb)
Winds:from the SW (230 degrees) at 15 MPH (13 knots; 6.7 m/s) gusting to 24 MPH (21 knots; 10.8 m/s)
Visibility: 1.25 sm ( 2.01 km)
Ceiling:2200 feet AGL
Clouds: few clouds at 700 feet AGL, broken clouds at 2200 feet AGL, overcast cloud deck at 3000 feet AGL
Weather:-RA (light rain)
QC Flag:automated observation with no human augmentation
Text:KHSE 140611Z AUTO 23012G21KT 1 1/2SM RA FEW007 BKN021 OVC044 28/24 A2991 RMK AO2 VIS 1/2V4 P0015 T02830244
Temperature: 28.3°C ( 83°F)
Dewpoint: 24.4°C ( 76°F) [RH = 79%]
Pressure (altimeter):29.91 inches Hg (1013.0 mb)
Winds:from the SW (230 degrees) at 14 MPH (12 knots; 6.2 m/s) gusting to 24 MPH (21 knots; 10.8 m/s)
Visibility: 1.50 sm ( 2.41 km)
Ceiling:2100 feet AGL
Clouds: few clouds at 700 feet AGL, broken clouds at 2100 feet AGL, overcast cloud deck at 4400 feet AGL
Weather:RA (moderate rain)
QC Flag:automated observation with no human augmentation
Text:KHSE 140602Z AUTO 23011G19KT 2SM -RA FEW017 BKN024 OVC030 28/25 A2990 RMK AO2 P0012 T02780250
Temperature: 27.8°C ( 82°F)
Dewpoint: 25.0°C ( 77°F) [RH = 85%]
Pressure (altimeter):29.90 inches Hg (1012.6 mb)
Winds:from the SW (230 degrees) at 13 MPH (11 knots; 5.7 m/s) gusting to 22 MPH (19 knots; 9.8 m/s)
Visibility: 2.00 sm ( 3.22 km)
Ceiling:2400 feet AGL
Clouds: few clouds at 1700 feet AGL, broken clouds at 2400 feet AGL, overcast cloud deck at 3000 feet AGL
Weather:-RA (light rain)
QC Flag:automated observation with no human augmentation
Text:KHSE 140551Z AUTO 22011G23KT 1SM +RA FEW005 BKN025 OVC030 27/24 A2991 RMK AO2 SLP127 P0075 60163 T02670239 10300 20256 56009
Temperature: 26.7°C ( 80°F)
Dewpoint: 23.9°C ( 75°F) [RH = 85%]
Pressure (altimeter):29.91 inches Hg (1013.0 mb) [Sea level pressure: 1012.7 mb]
Winds:from the SW (220 degrees) at 13 MPH (11 knots; 5.7 m/s) gusting to 26 MPH (23 knots; 11.8 m/s)
Visibility: 1.00 sm ( 1.61 km)
Ceiling:2500 feet AGL
Clouds: few clouds at 500 feet AGL, broken clouds at 2500 feet AGL, overcast cloud deck at 3000 feet AGL
Weather:+RA (heavy rain)
QC Flag:automated observation with no human augmentation
Text:KHSE 140533Z AUTO 25012G21KT 1 1/4SM +RA FEW005 BKN016 OVC031 27/24 A2991 RMK AO2 VIS 3/4V2 P0039 T02720244
Temperature: 27.2°C ( 81°F)
Dewpoint: 24.4°C ( 76°F) [RH = 85%]
Pressure (altimeter):29.91 inches Hg (1013.0 mb)
Winds:from the WSW (250 degrees) at 14 MPH (12 knots; 6.2 m/s) gusting to 24 MPH (21 knots; 10.8 m/s)
Visibility: 1.25 sm ( 2.01 km)
Ceiling:1600 feet AGL
Clouds: few clouds at 500 feet AGL, broken clouds at 1600 feet AGL, overcast cloud deck at 3100 feet AGL
Weather:+RA (heavy rain)
QC Flag:automated observation with no human augmentation
Text:KHSE 140525Z AUTO 24012G18KT 1SM +RA BR FEW005 BKN033 OVC070 27/25 A2991 RMK AO2 P0031 T02720250
Temperature: 27.2°C ( 81°F)
Dewpoint: 25.0°C ( 77°F) [RH = 88%]
Pressure (altimeter):29.91 inches Hg (1013.0 mb)
Winds:from the WSW (240 degrees) at 14 MPH (12 knots; 6.2 m/s) gusting to 21 MPH (18 knots; 9.3 m/s)
Visibility: 1.00 sm ( 1.61 km)
Ceiling:3300 feet AGL
Clouds: few clouds at 500 feet AGL, broken clouds at 3300 feet AGL, overcast cloud deck at 7000 feet AGL
Weather:+RA BR (heavy rain, mist)
QC Flag:automated observation with no human augmentation
Text:KHSE 140518Z AUTO 23008KT 1SM +RA FEW011 BKN033 OVC095 27/24 A2991 RMK AO2 LTG DSNT SE AND S P0021 T02670239
Temperature: 26.7°C ( 80°F)
Dewpoint: 23.9°C ( 75°F) [RH = 85%]
Pressure (altimeter):29.91 inches Hg (1013.0 mb)
Winds:from the SW (230 degrees) at 9 MPH (8 knots; 4.1 m/s)
Visibility: 1.00 sm ( 1.61 km)
Ceiling:3300 feet AGL
Clouds: few clouds at 1100 feet AGL, broken clouds at 3300 feet AGL, overcast cloud deck at 9500 feet AGL
Weather:+RA (heavy rain)
QC Flag:automated observation with no human augmentation
Text:KHSE 140507Z AUTO 24011KT 1 3/4SM +RA FEW016 BKN070 OVC120 28/25 A2991 RMK AO2 LTG DSNT SE AND S P0005 T02780250
Temperature: 27.8°C ( 82°F)
Dewpoint: 25.0°C ( 77°F) [RH = 85%]
Pressure (altimeter):29.91 inches Hg (1013.0 mb)
Winds:from the WSW (240 degrees) at 13 MPH (11 knots; 5.7 m/s)
Visibility: 1.75 sm ( 2.82 km)
Ceiling:7000 feet AGL
Clouds: few clouds at 1600 feet AGL, broken clouds at 7000 feet AGL, overcast cloud deck at 12000 feet AGL
Weather:+RA (heavy rain)
QC Flag:automated observation with no human augmentation
Text:KHSE 140451Z AUTO 22009G18KT 4SM RA BKN110 27/24 A2991 RMK AO2 PK WND 21027/0418 LTG DSNT SE AND S SLP128 P0003 T02720244 403000250
Temperature: 27.2°C ( 81°F)
Dewpoint: 24.4°C ( 76°F) [RH = 85%]
Pressure (altimeter):29.91 inches Hg (1013.0 mb) [Sea level pressure: 1012.8 mb]
Winds:from the SW (220 degrees) at 10 MPH (9 knots; 4.6 m/s) gusting to 21 MPH (18 knots; 9.3 m/s)
Visibility: 4 sm ( 6 km)
Ceiling:11000 feet AGL
Clouds: broken clouds at 11000 feet AGL
Weather:RA (moderate rain)
QC Flag:automated observation with no human augmentation
Text:KHSE 140410Z AUTO 20013G25KT 5SM -RA SCT020 BKN045 BKN060 27/24 A2992 RMK AO2 LTG DSNT S P0000 T02670239
Temperature: 26.7°C ( 80°F)
Dewpoint: 23.9°C ( 75°F) [RH = 85%]
Pressure (altimeter):29.92 inches Hg (1013.3 mb)
Winds:from the SSW (200 degrees) at 15 MPH (13 knots; 6.7 m/s) gusting to 29 MPH (25 knots; 12.9 m/s)
Visibility: 5 sm ( 8 km)
Ceiling:4500 feet AGL
Clouds: scattered clouds at 2000 feet AGL, broken clouds at 4500 feet AGL, broken clouds at 6000 feet AGL
Weather:-RA (light rain)
QC Flag:automated observation with no human augmentation
Text:KHSE 140401Z AUTO 21015G25KT 6SM -RA SCT013 BKN027 BKN048 26/23 A2993 RMK AO2 LTG DSNT S P0000 T02610233
Temperature: 26.1°C ( 79°F)
Dewpoint: 23.3°C ( 74°F) [RH = 85%]
Pressure (altimeter):29.93 inches Hg (1013.6 mb)
Winds:from the SSW (210 degrees) at 17 MPH (15 knots; 7.7 m/s) gusting to 29 MPH (25 knots; 12.9 m/s)
Visibility: 6 sm ( 10 km)
Ceiling:2700 feet AGL
Clouds: scattered clouds at 1300 feet AGL, broken clouds at 2700 feet AGL, broken clouds at 4800 feet AGL
Weather:-RA (light rain)
QC Flag:automated observation with no human augmentation
Text:KHSE 140351Z AUTO 20016G27KT 6SM -RA BKN013 BKN021 OVC038 26/23 A2993 RMK AO2 PK WND 21027/0342 SLP135 P0021 T02610233
Temperature: 26.1°C ( 79°F)
Dewpoint: 23.3°C ( 74°F) [RH = 85%]
Pressure (altimeter):29.93 inches Hg (1013.6 mb) [Sea level pressure: 1013.5 mb]
Winds:from the SSW (200 degrees) at 18 MPH (16 knots; 8.2 m/s) gusting to 31 MPH (27 knots; 13.9 m/s)
Visibility: 6 sm ( 10 km)
Ceiling:1300 feet AGL
Clouds: broken clouds at 1300 feet AGL, broken clouds at 2100 feet AGL, overcast cloud deck at 3800 feet AGL
Weather:-RA (light rain)
QC Flag:automated observation with no human augmentation
Text:KHSE 140340Z AUTO 21020G26KT 4SM -RA BR BKN011 OVC027 27/24 A2993 RMK AO2 PK WND 20026/0340 LTG DSNT S P0021 T02670244
Temperature: 26.7°C ( 80°F)
Dewpoint: 24.4°C ( 76°F) [RH = 87%]
Pressure (altimeter):29.93 inches Hg (1013.6 mb)
Winds:from the SSW (210 degrees) at 23 MPH (20 knots; 10.3 m/s) gusting to 30 MPH (26 knots; 13.4 m/s)
Visibility: 4 sm ( 6 km)
Ceiling:1100 feet AGL
Clouds: broken clouds at 1100 feet AGL, overcast cloud deck at 2700 feet AGL
Weather:-RA BR (light rain, mist)
QC Flag:automated observation with no human augmentation
Text:KHSE 140329Z AUTO 21016G24KT 2SM +RA BR BKN010 BKN020 OVC027 27/24 A2993 RMK AO2 LTG DSNT S P0019 T02670244
Temperature: 26.7°C ( 80°F)
Dewpoint: 24.4°C ( 76°F) [RH = 87%]
Pressure (altimeter):29.93 inches Hg (1013.6 mb)
Winds:from the SSW (210 degrees) at 18 MPH (16 knots; 8.2 m/s) gusting to 28 MPH (24 knots; 12.3 m/s)
Visibility: 2.00 sm ( 3.22 km)
Ceiling:1000 feet AGL
Clouds: broken clouds at 1000 feet AGL, broken clouds at 2000 feet AGL, overcast cloud deck at 2700 feet AGL
Weather:+RA BR (heavy rain, mist)
QC Flag:automated observation with no human augmentation
Text:KHSE 140318Z AUTO 21014G24KT 1 1/4SM +RA BR SCT010 BKN026 OVC100 27/24 A2993 RMK AO2 VIS 3/4V2 1/2 LTG DSNT S P0006 T02670244
Temperature: 26.7°C ( 80°F)
Dewpoint: 24.4°C ( 76°F) [RH = 87%]
Pressure (altimeter):29.93 inches Hg (1013.6 mb)
Winds:from the SSW (210 degrees) at 16 MPH (14 knots; 7.2 m/s) gusting to 28 MPH (24 knots; 12.3 m/s)
Visibility: 1.25 sm ( 2.01 km)
Ceiling:2600 feet AGL
Clouds: scattered clouds at 1000 feet AGL, broken clouds at 2600 feet AGL, overcast cloud deck at 10000 feet AGL
Weather:+RA BR (heavy rain, mist)
QC Flag:automated observation with no human augmentation
Text:KHSE 140313Z AUTO 21011G23KT 2 1/2SM +RA BR SCT010 BKN021 OVC110 27/24 A2993 RMK AO2 LTG DSNT S P0003 T02670244
Temperature: 26.7°C ( 80°F)
Dewpoint: 24.4°C ( 76°F) [RH = 87%]
Pressure (altimeter):29.93 inches Hg (1013.6 mb)
Winds:from the SSW (210 degrees) at 13 MPH (11 knots; 5.7 m/s) gusting to 26 MPH (23 knots; 11.8 m/s)
Visibility: 2.50 sm ( 4.02 km)
Ceiling:2100 feet AGL
Clouds: scattered clouds at 1000 feet AGL, broken clouds at 2100 feet AGL, overcast cloud deck at 11000 feet AGL
Weather:+RA BR (heavy rain, mist)
QC Flag:automated observation with no human augmentation
Text:KHSE 140251Z AUTO 21012KT 4SM -RA SCT100 BKN120 29/24 A2994 RMK AO2 SLP136 P0019 60064 T02890239 55004
Temperature: 28.9°C ( 84°F)
Dewpoint: 23.9°C ( 75°F) [RH = 74%]
Pressure (altimeter):29.94 inches Hg (1014.0 mb) [Sea level pressure: 1013.6 mb]
Winds:from the SSW (210 degrees) at 14 MPH (12 knots; 6.2 m/s)
Visibility: 4 sm ( 6 km)
Ceiling:12000 feet AGL
Clouds: scattered clouds at 10000 feet AGL, broken clouds at 12000 feet AGL
Weather:-RA (light rain)
QC Flag:automated observation with no human augmentation
Text:KHSE 140228Z AUTO 21012KT 3SM RA FEW015 SCT055 OVC090 30/24 A2994 RMK AO2 LTG DSNT SW P0015 T03000244
Temperature: 30.0°C ( 86°F)
Dewpoint: 24.4°C ( 76°F) [RH = 72%]
Pressure (altimeter):29.94 inches Hg (1014.0 mb)
Winds:from the SSW (210 degrees) at 14 MPH (12 knots; 6.2 m/s)
Visibility: 3 sm ( 5 km)
Ceiling:9000 feet AGL
Clouds: few clouds at 1500 feet AGL, scattered clouds at 5500 feet AGL, overcast cloud deck at 9000 feet AGL
Weather:RA (moderate rain)
QC Flag:automated observation with no human augmentation
Text:KHSE 140213Z AUTO 21012G19KT 2SM +RA SCT016 SCT060 OVC085 29/24 A2993 RMK AO2 P0011 T02940239
Temperature: 29.4°C ( 85°F)
Dewpoint: 23.9°C ( 75°F) [RH = 72%]
Pressure (altimeter):29.93 inches Hg (1013.6 mb)
Winds:from the SSW (210 degrees) at 14 MPH (12 knots; 6.2 m/s) gusting to 22 MPH (19 knots; 9.8 m/s)
Visibility: 2.00 sm ( 3.22 km)
Ceiling:8500 feet AGL
Clouds: scattered clouds at 1600 feet AGL, scattered clouds at 6000 feet AGL, overcast cloud deck at 8500 feet AGL
Weather:+RA (heavy rain)
QC Flag:automated observation with no human augmentation
Text:KHSE 140151Z AUTO 23012G17KT 2SM +RA SCT008 BKN016 OVC046 27/24 A2992 RMK AO2 PK WND 18028/0115 WSHFT 0120 LTG DSNT SE-SW SLP130 P0045 T02720239
Temperature: 27.2°C ( 81°F)
Dewpoint: 23.9°C ( 75°F) [RH = 82%]
Pressure (altimeter):29.92 inches Hg (1013.3 mb) [Sea level pressure: 1013.0 mb]
Winds:from the SW (230 degrees) at 14 MPH (12 knots; 6.2 m/s) gusting to 20 MPH (17 knots; 8.7 m/s)
Visibility: 2.00 sm ( 3.22 km)
Ceiling:1600 feet AGL
Clouds: scattered clouds at 800 feet AGL, broken clouds at 1600 feet AGL, overcast cloud deck at 4600 feet AGL
Weather:+RA (heavy rain)
QC Flag:automated observation with no human augmentation
Text:KHSE 140146Z AUTO 24008G16KT 2 1/2SM +RA SCT008 BKN014 OVC044 27/24 A2992 RMK AO2 PK WND 18028/0115 WSHFT 0120 LTG DSNT SE-SW P0041
Temperature: 27.0°C ( 81°F)
Dewpoint: 24.0°C ( 75°F) [RH = 84%]
Pressure (altimeter):29.92 inches Hg (1013.3 mb)
Winds:from the WSW (240 degrees) at 9 MPH (8 knots; 4.1 m/s) gusting to 18 MPH (16 knots; 8.2 m/s)
Visibility: 2.50 sm ( 4.02 km)
Ceiling:1400 feet AGL
Clouds: scattered clouds at 800 feet AGL, broken clouds at 1400 feet AGL, overcast cloud deck at 4400 feet AGL
Weather:+RA (heavy rain)
QC Flag:automated observation with no human augmentation
Text:KHSE 140143Z AUTO 24009G16KT 2 1/2SM +RA SCT010 BKN023 OVC044 27/24 A2992 RMK AO2 PK WND 18028/0115 WSHFT 0120 LTG DSNT S AND SW P0040 T02670239
Temperature: 26.7°C ( 80°F)
Dewpoint: 23.9°C ( 75°F) [RH = 85%]
Pressure (altimeter):29.92 inches Hg (1013.3 mb)
Winds:from the WSW (240 degrees) at 10 MPH (9 knots; 4.6 m/s) gusting to 18 MPH (16 knots; 8.2 m/s)
Visibility: 2.50 sm ( 4.02 km)
Ceiling:2300 feet AGL
Clouds: scattered clouds at 1000 feet AGL, broken clouds at 2300 feet AGL, overcast cloud deck at 4400 feet AGL
Weather:+RA (heavy rain)
QC Flag:automated observation with no human augmentation
Text:KHSE 140136Z AUTO 24009G26KT 3SM RA SCT008 BKN026 OVC046 27/24 A2992 RMK AO2 PK WND 18028/0115 WSHFT 0120 LTG DSNT SE-SW P0037 T02670239
Temperature: 26.7°C ( 80°F)
Dewpoint: 23.9°C ( 75°F) [RH = 85%]
Pressure (altimeter):29.92 inches Hg (1013.3 mb)
Winds:from the WSW (240 degrees) at 10 MPH (9 knots; 4.6 m/s) gusting to 30 MPH (26 knots; 13.4 m/s)
Visibility: 3 sm ( 5 km)
Ceiling:2600 feet AGL
Clouds: scattered clouds at 800 feet AGL, broken clouds at 2600 feet AGL, overcast cloud deck at 4600 feet AGL
Weather:RA (moderate rain)
QC Flag:automated observation with no human augmentation
Text:KHSE 140133Z AUTO 23011G26KT 3SM RA SCT008 BKN014 OVC036 27/24 A2992 RMK AO2 PK WND 18028/0115 LTG DSNT SE AND S P0037 T02670239
Temperature: 26.7°C ( 80°F)
Dewpoint: 23.9°C ( 75°F) [RH = 85%]
Pressure (altimeter):29.92 inches Hg (1013.3 mb)
Winds:from the SW (230 degrees) at 13 MPH (11 knots; 5.7 m/s) gusting to 30 MPH (26 knots; 13.4 m/s)
Visibility: 3 sm ( 5 km)
Ceiling:1400 feet AGL
Clouds: scattered clouds at 800 feet AGL, broken clouds at 1400 feet AGL, overcast cloud deck at 3600 feet AGL
Weather:RA (moderate rain)
QC Flag:automated observation with no human augmentation
Text:KHSE 140130Z AUTO 21020G26KT 2SM RA FEW004 BKN016 OVC028 27/24 A2992 RMK AO2 PK WND 18028/0115 LTG DSNT SE AND S P0036 T02670239
Temperature: 26.7°C ( 80°F)
Dewpoint: 23.9°C ( 75°F) [RH = 85%]
Pressure (altimeter):29.92 inches Hg (1013.3 mb)
Winds:from the SSW (210 degrees) at 23 MPH (20 knots; 10.3 m/s) gusting to 30 MPH (26 knots; 13.4 m/s)
Visibility: 2.00 sm ( 3.22 km)
Ceiling:1600 feet AGL
Clouds: few clouds at 400 feet AGL, broken clouds at 1600 feet AGL, overcast cloud deck at 2800 feet AGL
Weather:RA (moderate rain)
QC Flag:automated observation with no human augmentation
Text:KHSE 140127Z AUTO 20017G27KT 1SM RA SCT006 BKN014 OVC048 27/24 A2992 RMK AO2 PK WND 18028/0115 LTG DSNT SE AND S P0036 T02670239
Temperature: 26.7°C ( 80°F)
Dewpoint: 23.9°C ( 75°F) [RH = 85%]
Pressure (altimeter):29.92 inches Hg (1013.3 mb)
Winds:from the SSW (200 degrees) at 20 MPH (17 knots; 8.7 m/s) gusting to 31 MPH (27 knots; 13.9 m/s)
Visibility: 1.00 sm ( 1.61 km)
Ceiling:1400 feet AGL
Clouds: scattered clouds at 600 feet AGL, broken clouds at 1400 feet AGL, overcast cloud deck at 4800 feet AGL
Weather:RA (moderate rain)
QC Flag:automated observation with no human augmentation
Text:KHSE 140124Z AUTO 18017G28KT 3/4SM +RA FEW006 BKN028 OVC050 27/24 A2992 RMK AO2 PK WND 18028/0115 LTG DSNT S P0034 T02670239
Temperature: 26.7°C ( 80°F)
Dewpoint: 23.9°C ( 75°F) [RH = 85%]
Pressure (altimeter):29.92 inches Hg (1013.3 mb)
Winds:from the S (180 degrees) at 20 MPH (17 knots; 8.7 m/s) gusting to 32 MPH (28 knots; 14.4 m/s)
Visibility: 0.75 sm ( 1.21 km)
Ceiling:2800 feet AGL
Clouds: few clouds at 600 feet AGL, broken clouds at 2800 feet AGL, overcast cloud deck at 5000 feet AGL
Weather:+RA (heavy rain)
QC Flag:automated observation with no human augmentation
Text:KHSE 140101Z AUTO 16016KT 1 1/4SM +RA BR FEW007 BKN032 OVC048 26/24 A2994 RMK AO2 LTG DSNT S P0006 T02610239
Temperature: 26.1°C ( 79°F)
Dewpoint: 23.9°C ( 75°F) [RH = 88%]
Pressure (altimeter):29.94 inches Hg (1014.0 mb)
Winds:from the SSE (160 degrees) at 18 MPH (16 knots; 8.2 m/s)
Visibility: 1.25 sm ( 2.01 km)
Ceiling:3200 feet AGL
Clouds: few clouds at 700 feet AGL, broken clouds at 3200 feet AGL, overcast cloud deck at 4800 feet AGL
Weather:+RA BR (heavy rain, mist)
QC Flag:automated observation with no human augmentation
Text:KHSE 140054Z AUTO 16015G23KT 2SM +RA BR FEW007 BKN034 OVC042 26/23 A2995 RMK AO2 LTG DSNT S P0001 T02560233
Temperature: 25.6°C ( 78°F)
Dewpoint: 23.3°C ( 74°F) [RH = 87%]
Pressure (altimeter):29.95 inches Hg (1014.3 mb)
Winds:from the SSE (160 degrees) at 17 MPH (15 knots; 7.7 m/s) gusting to 26 MPH (23 knots; 11.8 m/s)
Visibility: 2.00 sm ( 3.22 km)
Ceiling:3400 feet AGL
Clouds: few clouds at 700 feet AGL, broken clouds at 3400 feet AGL, overcast cloud deck at 4200 feet AGL
Weather:+RA BR (heavy rain, mist)
QC Flag:automated observation with no human augmentation
Text:KHSE 140051Z AUTO 16017G23KT 4SM RA BR FEW010 SCT021 OVC037 26/23 A2995 RMK AO2 PK WND 17026/0014 RAB40 SLP140 P0000 T02560233
Temperature: 25.6°C ( 78°F)
Dewpoint: 23.3°C ( 74°F) [RH = 87%]
Pressure (altimeter):29.95 inches Hg (1014.3 mb) [Sea level pressure: 1014.0 mb]
Winds:from the SSE (160 degrees) at 20 MPH (17 knots; 8.7 m/s) gusting to 26 MPH (23 knots; 11.8 m/s)
Visibility: 4 sm ( 6 km)
Ceiling:3700 feet AGL
Clouds: few clouds at 1000 feet AGL, scattered clouds at 2100 feet AGL, overcast cloud deck at 3700 feet AGL
Weather:RA BR (moderate rain, mist)
QC Flag:automated observation with no human augmentation
Text:KHSE 140025Z AUTO 18017G24KT 10SM SCT013 BKN020 OVC033 26/23 A2995 RMK AO2 PK WND 17026/0014 T02560233
Temperature: 25.6°C ( 78°F)
Dewpoint: 23.3°C ( 74°F) [RH = 87%]
Pressure (altimeter):29.95 inches Hg (1014.3 mb)
Winds:from the S (180 degrees) at 20 MPH (17 knots; 8.7 m/s) gusting to 28 MPH (24 knots; 12.3 m/s)
Visibility:10 or more sm (16+ km)
Ceiling:2000 feet AGL
Clouds: scattered clouds at 1300 feet AGL, broken clouds at 2000 feet AGL, overcast cloud deck at 3300 feet AGL
QC Flag:automated observation with no human augmentation
Text:KHSE 132351Z AUTO 18010KT 10SM OVC030 27/23 A2995 RMK AO2 RAE34 SLP141 P0000 60005 T02670233 10283 20256 55004
Temperature: 26.7°C ( 80°F)
Dewpoint: 23.3°C ( 74°F) [RH = 82%]
Pressure (altimeter):29.95 inches Hg (1014.3 mb) [Sea level pressure: 1014.1 mb]
Winds:from the S (180 degrees) at 12 MPH (10 knots; 5.1 m/s)
Visibility:10 or more sm (16+ km)
Ceiling:3000 feet AGL
Clouds: overcast cloud deck at 3000 feet AGL
QC Flag:automated observation with no human augmentation
Text:KHSE 132251Z AUTO 18013KT 5SM -RA BR FEW026 BKN075 OVC110 26/23 A2994 RMK AO2 RAB26 SLP138 P0005 T02560233
Temperature: 25.6°C ( 78°F)
Dewpoint: 23.3°C ( 74°F) [RH = 87%]
Pressure (altimeter):29.94 inches Hg (1014.0 mb) [Sea level pressure: 1013.8 mb]
Winds:from the S (180 degrees) at 15 MPH (13 knots; 6.7 m/s)
Visibility: 5 sm ( 8 km)
Ceiling:7500 feet AGL
Clouds: few clouds at 2600 feet AGL, broken clouds at 7500 feet AGL, overcast cloud deck at 11000 feet AGL
Weather:-RA BR (light rain, mist)
QC Flag:automated observation with no human augmentation
Text:KHSE 132237Z AUTO 19012G18KT 3SM -RA BR FEW016 BKN047 OVC100 26/23 A2995 RMK AO2 RAB26 P0004 T02560233
Temperature: 25.6°C ( 78°F)
Dewpoint: 23.3°C ( 74°F) [RH = 87%]
Pressure (altimeter):29.95 inches Hg (1014.3 mb)
Winds:from the S (190 degrees) at 14 MPH (12 knots; 6.2 m/s) gusting to 21 MPH (18 knots; 9.3 m/s)
Visibility: 3 sm ( 5 km)
Ceiling:4700 feet AGL
Clouds: few clouds at 1600 feet AGL, broken clouds at 4700 feet AGL, overcast cloud deck at 10000 feet AGL
Weather:-RA BR (light rain, mist)
QC Flag:automated observation with no human augmentation
Text:KHSE 132229Z AUTO 19011KT 1 3/4SM +RA FEW016 SCT025 BKN038 26/23 A2995 RMK AO2 RAB26 P0002 T02610233
Temperature: 26.1°C ( 79°F)
Dewpoint: 23.3°C ( 74°F) [RH = 85%]
Pressure (altimeter):29.95 inches Hg (1014.3 mb)
Winds:from the S (190 degrees) at 13 MPH (11 knots; 5.7 m/s)
Visibility: 1.75 sm ( 2.82 km)
Ceiling:3800 feet AGL
Clouds: few clouds at 1600 feet AGL, scattered clouds at 2500 feet AGL, broken clouds at 3800 feet AGL
Weather:+RA (heavy rain)
QC Flag:automated observation with no human augmentation
Text:KHSE 132151Z AUTO 21010KT 10SM CLR 27/23 A2995 RMK AO2 SLP142 T02720233
Temperature: 27.2°C ( 81°F)
Dewpoint: 23.3°C ( 74°F) [RH = 79%]
Pressure (altimeter):29.95 inches Hg (1014.3 mb) [Sea level pressure: 1014.2 mb]
Winds:from the SSW (210 degrees) at 12 MPH (10 knots; 5.1 m/s)
Visibility:10 or more sm (16+ km)
Ceiling:at least 12,000 feet AGL
Clouds:sky clear below 12,000 feet AGL
QC Flag:automated observation with no human augmentation
Text:KHSE 132051Z AUTO 22012G16KT 10SM FEW017 28/23 A2996 RMK AO2 SLP144 60000 T02780233 55012
Temperature: 27.8°C ( 82°F)
Dewpoint: 23.3°C ( 74°F) [RH = 77%]
Pressure (altimeter):29.96 inches Hg (1014.6 mb) [Sea level pressure: 1014.4 mb]
Winds:from the SW (220 degrees) at 14 MPH (12 knots; 6.2 m/s) gusting to 18 MPH (16 knots; 8.2 m/s)
Visibility:10 or more sm (16+ km)
Ceiling:at least 12,000 feet AGL
Clouds: few clouds at 1700 feet AGL
QC Flag:automated observation with no human augmentation
Text:KHSE 131951Z AUTO 22006KT 10SM CLR 28/24 A2995 RMK AO2 RAB00E25 SLP143 P0000 T02780239
Temperature: 27.8°C ( 82°F)
Dewpoint: 23.9°C ( 75°F) [RH = 79%]
Pressure (altimeter):29.95 inches Hg (1014.3 mb) [Sea level pressure: 1014.3 mb]
Winds:from the SW (220 degrees) at 7 MPH (6 knots; 3.1 m/s)
Visibility:10 or more sm (16+ km)
Ceiling:at least 12,000 feet AGL
Clouds:sky clear below 12,000 feet AGL
QC Flag:automated observation with no human augmentation
Text:KHSE 131851Z AUTO 22012G20KT 10SM FEW020 FEW038 28/24 A2998 RMK AO2 RAE22 SLP150 P0000 T02780239
Temperature: 27.8°C ( 82°F)
Dewpoint: 23.9°C ( 75°F) [RH = 79%]
Pressure (altimeter):29.98 inches Hg (1015.3 mb) [Sea level pressure: 1015.0 mb]
Winds:from the SW (220 degrees) at 14 MPH (12 knots; 6.2 m/s) gusting to 23 MPH (20 knots; 10.3 m/s)
Visibility:10 or more sm (16+ km)
Ceiling:at least 12,000 feet AGL
Clouds: few clouds at 2000 feet AGL, few clouds at 3800 feet AGL
QC Flag:automated observation with no human augmentation
Text:KHSE 131843Z AUTO 22011G18KT 8SM FEW020 SCT040 27/24 A2998 RMK AO2 RAE22 P0000 T02720239
Temperature: 27.2°C ( 81°F)
Dewpoint: 23.9°C ( 75°F) [RH = 82%]
Pressure (altimeter):29.98 inches Hg (1015.3 mb)
Winds:from the SW (220 degrees) at 13 MPH (11 knots; 5.7 m/s) gusting to 21 MPH (18 knots; 9.3 m/s)
Visibility: 8 sm ( 13 km)
Ceiling:at least 12,000 feet AGL
Clouds: few clouds at 2000 feet AGL, scattered clouds at 4000 feet AGL
QC Flag:automated observation with no human augmentation
Text:KHSE 131751Z AUTO 21015G23KT 6SM -RA FEW011 BKN023 OVC029 27/24 A2999 RMK AO2 RAE1655B19 SLP156 P0000 60000 T02720244 10300 20261 56009
Temperature: 27.2°C ( 81°F)
Dewpoint: 24.4°C ( 76°F) [RH = 85%]
Pressure (altimeter):29.99 inches Hg (1015.7 mb) [Sea level pressure: 1015.6 mb]
Winds:from the SSW (210 degrees) at 17 MPH (15 knots; 7.7 m/s) gusting to 26 MPH (23 knots; 11.8 m/s)
Visibility: 6 sm ( 10 km)
Ceiling:2300 feet AGL
Clouds: few clouds at 1100 feet AGL, broken clouds at 2300 feet AGL, overcast cloud deck at 2900 feet AGL
Weather:-RA (light rain)
QC Flag:automated observation with no human augmentation
Text:KHSE 131701Z AUTO 22014G23KT 10SM SCT011 BKN023 BKN033 28/24 A2999 RMK AO2 RAE1655 P0000 T02830244
Temperature: 28.3°C ( 83°F)
Dewpoint: 24.4°C ( 76°F) [RH = 79%]
Pressure (altimeter):29.99 inches Hg (1015.7 mb)
Winds:from the SW (220 degrees) at 16 MPH (14 knots; 7.2 m/s) gusting to 26 MPH (23 knots; 11.8 m/s)
Visibility:10 or more sm (16+ km)
Ceiling:2300 feet AGL
Clouds: scattered clouds at 1100 feet AGL, broken clouds at 2300 feet AGL, broken clouds at 3300 feet AGL
QC Flag:automated observation with no human augmentation
Text:KHSE 131651Z AUTO 21014G23KT 9SM -RA BKN011 BKN023 OVC047 28/24 A3000 RMK AO2 RAB45 SLP157 P0000 T02780244
Temperature: 27.8°C ( 82°F)
Dewpoint: 24.4°C ( 76°F) [RH = 82%]
Pressure (altimeter):30.00 inches Hg (1016.0 mb) [Sea level pressure: 1015.7 mb]
Winds:from the SSW (210 degrees) at 16 MPH (14 knots; 7.2 m/s) gusting to 26 MPH (23 knots; 11.8 m/s)
Visibility: 9 sm ( 14 km)
Ceiling:1100 feet AGL
Clouds: broken clouds at 1100 feet AGL, broken clouds at 2300 feet AGL, overcast cloud deck at 4700 feet AGL
Weather:-RA (light rain)
QC Flag:automated observation with no human augmentation
Text:KHSE 131645Z AUTO 20011G21KT 9SM -RA FEW009 BKN012 OVC050 27/23 A3000 RMK AO2 RAB45 P0000
Temperature: 27.0°C ( 81°F)
Dewpoint: 23.0°C ( 73°F) [RH = 79%]
Pressure (altimeter):30.00 inches Hg (1016.0 mb)
Winds:from the SSW (200 degrees) at 13 MPH (11 knots; 5.7 m/s) gusting to 24 MPH (21 knots; 10.8 m/s)
Visibility: 9 sm ( 14 km)
Ceiling:1200 feet AGL
Clouds: few clouds at 900 feet AGL, broken clouds at 1200 feet AGL, overcast cloud deck at 5000 feet AGL
Weather:-RA (light rain)
QC Flag:automated observation with no human augmentation
Text:KHSE 131641Z AUTO 19016G23KT 9SM BKN012 BKN022 BKN048 27/23 A3000 RMK AO2 T02720233
Temperature: 27.2°C ( 81°F)
Dewpoint: 23.3°C ( 74°F) [RH = 79%]
Pressure (altimeter):30.00 inches Hg (1016.0 mb)
Winds:from the S (190 degrees) at 18 MPH (16 knots; 8.2 m/s) gusting to 26 MPH (23 knots; 11.8 m/s)
Visibility: 9 sm ( 14 km)
Ceiling:1200 feet AGL
Clouds: broken clouds at 1200 feet AGL, broken clouds at 2200 feet AGL, broken clouds at 4800 feet AGL
QC Flag:automated observation with no human augmentation
Text:KHSE 131551Z AUTO 19013KT 10SM FEW010 28/24 A3001 RMK AO2 LTG DSNT S SLP162 T02830239
Temperature: 28.3°C ( 83°F)
Dewpoint: 23.9°C ( 75°F) [RH = 77%]
Pressure (altimeter):30.01 inches Hg (1016.3 mb) [Sea level pressure: 1016.2 mb]
Winds:from the S (190 degrees) at 15 MPH (13 knots; 6.7 m/s)
Visibility:10 or more sm (16+ km)
Ceiling:at least 12,000 feet AGL
Clouds: few clouds at 1000 feet AGL
QC Flag:automated observation with no human augmentation